Hauptseite
METAR-TAF:

METAR-TAF

Flughäfen :

Flughafen Dakar-Léopold Sédar Senghor

Dakar, Senegal

Breite: 14-44N, Länge: 017-30W, Höhe: 27 m

Beobachtung

Neuester Wetterbericht von vor 52 Minuten, um 13:00 UTC
Wind 8 kt aus Nord/Nordwest
Temperatur 25°C
Luftfeuchtigkeit 74%
Luftdruck 1013 hPa
Sichtweite 10 km oder mehr
Durchbrochene Bewölkung in der Höhe von 1100 ft

METAR: GOOY 271300Z 34008KT 9999 BKN011 25/20 Q1013

Zeit: 13:52 (13:52 UTC)

Prognose

Neuester Wetterbericht von vor 2 Stunden und 22 Minuten, um 11:30 UTC
Gültige Prognose vom 27 um 12 UTC bis 28 um 18 UTC
Wind 8 kt aus Nord/Nordwest
Sichtweite 10 km oder mehr
Aufgelockert bewölkt in der Höhe von 1000 ft

TAF: GOOY 271130Z 2712/2818 34008KT 9999 SCT010

Wetterbeobachtungen und Prognosen von mehr als 4000 Flughäfen (METAR und TAF Bericht).

Die verfügbaren Stationen werden durch gelbe und rote Markierungen auf der Karte dargestellt.

Führen Sie die Maus auf sie, um den Namen der Station zu sehen.

Darauf klicken, um die Beobachtung von Wetterbeobachtungen und Prognosen zu sehen.

Um die Karte zu ändern : klicken Sie auf den grünen Tasten mit einem schwarzen Kreuz Zum Vergrößern, auf den grünen Button mit einem Gedankenstrich zu verkleinern, oder auf die grünen Pfeile für benachbarte Karten.


METAR-TAF: